createdAt,value
2017-09-30T00:02:07.257Z,87.12
2017-09-30T00:04:35.523Z,87.20
2017-09-30T00:07:03.789Z,87.23
2017-09-30T00:09:32.046Z,87.32
2017-09-30T00:12:01.063Z,87.22
2017-09-30T00:14:29.324Z,87.18
2017-09-30T00:16:58.347Z,87.32
2017-09-30T00:19:26.597Z,87.48
2017-09-30T00:21:54.861Z,87.49
2017-09-30T00:24:23.878Z,87.30
2017-09-30T00:26:52.138Z,87.31
2017-09-30T00:29:20.396Z,87.36
2017-09-30T00:31:49.420Z,87.48
2017-09-30T00:34:17.669Z,87.67
2017-09-30T00:36:46.701Z,87.88
2017-09-30T00:39:14.958Z,87.97
2017-09-30T00:41:43.225Z,87.82
2017-09-30T00:44:12.242Z,87.86
2017-09-30T00:46:40.509Z,87.92
2017-09-30T00:49:08.771Z,87.69
2017-09-30T00:51:37.805Z,87.65
2017-09-30T00:54:06.064Z,87.58
2017-09-30T00:56:34.328Z,87.52
2017-09-30T00:59:02.589Z,87.52
2017-09-30T01:01:31.616Z,87.63
2017-09-30T01:03:59.874Z,87.72
2017-09-30T01:06:28.133Z,87.81
2017-09-30T01:08:57.162Z,87.94
2017-09-30T01:11:25.416Z,87.90
2017-09-30T01:13:53.685Z,88.02
2017-09-30T01:16:21.941Z,88.06
2017-09-30T01:18:50.970Z,88.24
2017-09-30T01:21:19.224Z,88.43
2017-09-30T01:23:47.494Z,88.42
2017-09-30T01:26:16.514Z,88.62
2017-09-30T01:28:44.798Z,88.79
2017-09-30T01:31:13.052Z,88.87
2017-09-30T01:33:41.317Z,88.83
2017-09-30T01:36:10.349Z,88.90
2017-09-30T01:38:38.618Z,89.01
2017-09-30T01:41:06.873Z,89.10
2017-09-30T01:43:35.131Z,89.24
2017-09-30T01:46:04.161Z,89.31
2017-09-30T01:48:32.417Z,89.29
2017-09-30T01:51:00.681Z,89.39
2017-09-30T01:53:29.705Z,89.41
2017-09-30T01:55:57.975Z,89.41
2017-09-30T01:58:26.229Z,89.42
2017-09-30T02:00:55.258Z,89.48
2017-09-30T02:03:23.519Z,89.46
2017-09-30T02:05:51.789Z,89.50
2017-09-30T02:08:20.049Z,89.46
2017-09-30T02:10:48.307Z,89.46
2017-09-30T02:13:17.341Z,89.62
2017-09-30T02:15:45.600Z,89.62
2017-09-30T02:18:13.864Z,89.63
2017-09-30T02:20:42.890Z,89.61
2017-09-30T02:23:11.153Z,89.59
2017-09-30T02:25:39.409Z,89.67
2017-09-30T02:28:08.450Z,89.89
2017-09-30T02:30:36.703Z,90.01
2017-09-30T02:33:04.965Z,90.11
2017-09-30T02:35:33.227Z,90.17
2017-09-30T02:38:02.273Z,90.23
2017-09-30T02:40:30.532Z,90.23
2017-09-30T02:42:58.787Z,90.23
2017-09-30T02:45:27.051Z,90.23
2017-09-30T02:47:56.063Z,90.18
2017-09-30T02:50:24.330Z,90.16
2017-09-30T02:52:52.584Z,90.13
2017-09-30T02:55:21.622Z,90.15
2017-09-30T02:57:49.872Z,90.11
2017-09-30T03:00:18.148Z,90.09
2017-09-30T03:02:47.173Z,90.11
2017-09-30T03:05:15.434Z,90.21
2017-09-30T03:07:43.695Z,90.22
2017-09-30T03:10:11.959Z,90.20
2017-09-30T03:12:40.995Z,90.26
2017-09-30T03:15:09.251Z,90.30
2017-09-30T03:17:37.514Z,90.28
2017-09-30T03:20:05.770Z,90.27
2017-09-30T03:22:34.801Z,90.32
2017-09-30T03:25:03.053Z,90.26
2017-09-30T03:27:31.322Z,90.29
2017-09-30T03:30:00.358Z,90.25
2017-09-30T03:32:28.624Z,90.29
2017-09-30T03:34:56.891Z,90.38
2017-09-30T03:37:25.145Z,90.38
2017-09-30T03:39:53.418Z,90.38
2017-09-30T03:42:22.440Z,90.36
2017-09-30T03:44:50.712Z,90.33
2017-09-30T03:47:18.970Z,90.33
2017-09-30T03:49:47.233Z,90.29
2017-09-30T03:52:16.259Z,90.35
2017-09-30T03:54:44.527Z,90.41
2017-09-30T03:57:12.770Z,90.42
2017-09-30T03:59:41.805Z,90.42
2017-09-30T04:02:10.065Z,90.40
2017-09-30T04:04:38.326Z,90.44
2017-09-30T04:07:07.361Z,90.39
2017-09-30T04:09:35.618Z,90.38
2017-09-30T04:12:03.887Z,90.42
2017-09-30T04:14:32.142Z,90.52
2017-09-30T04:17:01.179Z,90.50
2017-09-30T04:19:29.426Z,90.51
2017-09-30T04:21:57.688Z,90.49
2017-09-30T04:24:26.718Z,90.51
2017-09-30T04:26:54.985Z,90.42
2017-09-30T04:29:23.249Z,90.47
2017-09-30T04:31:51.513Z,90.53
2017-09-30T04:34:20.533Z,90.52
2017-09-30T04:36:48.793Z,90.59
2017-09-30T04:39:17.061Z,90.56
2017-09-30T04:41:45.325Z,90.61
2017-09-30T04:44:14.349Z,90.59
2017-09-30T04:46:42.612Z,90.67
2017-09-30T04:49:10.866Z,90.63
2017-09-30T04:51:39.918Z,90.68
2017-09-30T04:54:08.182Z,90.69
2017-09-30T04:56:36.436Z,90.68
2017-09-30T04:59:04.702Z,90.68
2017-09-30T05:01:32.961Z,90.66
2017-09-30T05:04:01.989Z,90.62
2017-09-30T05:06:30.246Z,90.64
2017-09-30T05:08:58.520Z,90.63
2017-09-30T05:11:26.782Z,90.66
2017-09-30T05:13:55.801Z,90.66
2017-09-30T05:16:24.071Z,90.68
2017-09-30T05:18:52.324Z,90.65
2017-09-30T05:21:21.358Z,90.61
2017-09-30T05:23:49.612Z,90.65
2017-09-30T05:26:17.881Z,90.66
2017-09-30T05:28:46.909Z,90.57
2017-09-30T05:31:15.178Z,90.58
2017-09-30T05:33:43.436Z,90.52
2017-09-30T05:36:11.702Z,90.46
2017-09-30T05:38:40.722Z,90.50
2017-09-30T05:41:08.984Z,90.46
2017-09-30T05:43:37.336Z,90.44
2017-09-30T05:46:05.587Z,90.38
2017-09-30T05:48:33.853Z,90.29
2017-09-30T05:51:02.124Z,90.26
2017-09-30T05:53:30.382Z,90.19
2017-09-30T05:55:58.637Z,90.09
2017-09-30T05:58:26.900Z,90.06
2017-09-30T06:00:55.931Z,89.96
2017-09-30T06:03:24.185Z,90.08
2017-09-30T06:05:52.564Z,90.01
2017-09-30T06:08:20.834Z,90.00
2017-09-30T06:10:49.092Z,89.96
2017-09-30T06:13:18.115Z,89.90
2017-09-30T06:15:46.380Z,89.74
2017-09-30T06:18:14.629Z,89.57
2017-09-30T06:20:43.665Z,89.55
2017-09-30T06:23:11.926Z,89.57
2017-09-30T06:25:40.185Z,89.24
2017-09-30T06:28:09.205Z,89.40
2017-09-30T06:30:37.470Z,89.20
2017-09-30T06:33:05.726Z,89.08
2017-09-30T06:35:34.760Z,88.73
2017-09-30T06:38:03.007Z,88.61
2017-09-30T06:40:31.266Z,88.78
2017-09-30T06:43:00.290Z,88.51
2017-09-30T06:45:28.548Z,88.01
2017-09-30T06:47:57.562Z,88.17
2017-09-30T06:50:25.929Z,88.15
2017-09-30T06:52:54.184Z,87.71
2017-09-30T06:55:23.210Z,88.04
2017-09-30T06:57:51.460Z,87.91
2017-09-30T07:00:20.514Z,87.71
2017-09-30T07:02:48.751Z,87.72
2017-09-30T07:05:17.005Z,87.63
2017-09-30T07:07:46.022Z,87.58
2017-09-30T07:10:14.277Z,87.05
2017-09-30T07:12:42.535Z,87.22
2017-09-30T07:15:10.793Z,86.80
2017-09-30T07:17:39.051Z,86.95
2017-09-30T07:20:07.302Z,86.23
2017-09-30T07:22:35.561Z,86.59
2017-09-30T07:25:03.808Z,86.71
2017-09-30T07:27:32.842Z,86.49
2017-09-30T07:30:01.094Z,86.28
2017-09-30T07:32:30.117Z,87.42
2017-09-30T07:34:58.370Z,86.63
2017-09-30T07:37:26.629Z,85.74
2017-09-30T07:39:55.644Z,86.72
2017-09-30T07:42:23.902Z,86.70
2017-09-30T07:44:52.916Z,85.51
2017-09-30T07:47:21.174Z,85.91
2017-09-30T07:49:50.185Z,85.29
2017-09-30T07:52:18.438Z,84.95
2017-09-30T07:54:47.445Z,84.27
2017-09-30T07:57:15.711Z,84.78
2017-09-30T07:59:44.718Z,85.25
2017-09-30T08:02:12.971Z,85.41
2017-09-30T08:04:41.982Z,84.43
2017-09-30T08:07:10.233Z,83.62
2017-09-30T08:09:38.477Z,83.64
2017-09-30T08:12:06.736Z,83.62
2017-09-30T08:14:34.982Z,83.07
2017-09-30T08:17:03.232Z,82.23
2017-09-30T08:19:32.241Z,82.44
2017-09-30T08:22:01.282Z,83.09
2017-09-30T08:24:29.534Z,83.03
2017-09-30T08:26:57.788Z,82.61
2017-09-30T08:29:26.808Z,82.40
2017-09-30T08:31:55.057Z,82.68
2017-09-30T08:34:24.078Z,82.44
2017-09-30T08:36:52.333Z,81.32
2017-09-30T08:39:20.583Z,81.07
2017-09-30T08:41:48.838Z,80.12
2017-09-30T08:44:17.081Z,79.66
2017-09-30T08:46:45.338Z,79.80
2017-09-30T08:49:13.584Z,79.09
2017-09-30T08:51:42.604Z,79.19
2017-09-30T08:54:10.857Z,79.11
2017-09-30T08:56:39.874Z,80.03
2017-09-30T08:59:08.121Z,77.79
2017-09-30T09:01:37.142Z,76.77
2017-09-30T09:04:05.386Z,76.47
2017-09-30T09:06:33.636Z,75.97
2017-09-30T09:09:01.887Z,75.57
2017-09-30T09:11:30.138Z,76.41
2017-09-30T09:13:58.380Z,74.66
2017-09-30T09:16:26.638Z,75.02
2017-09-30T09:18:54.884Z,73.26
2017-09-30T09:21:23.137Z,72.50
2017-09-30T09:23:51.381Z,72.54
2017-09-30T09:26:21.145Z,71.80
2017-09-30T09:28:49.397Z,70.52
2017-09-30T09:31:18.417Z,71.79
2017-09-30T09:33:46.666Z,71.85
2017-09-30T09:36:15.680Z,70.48
2017-09-30T09:38:43.925Z,72.37
2017-09-30T09:41:12.944Z,74.15
2017-09-30T09:43:41.193Z,73.50
2017-09-30T09:46:10.212Z,72.65
2017-09-30T09:48:38.468Z,72.62
2017-09-30T09:51:07.483Z,71.91
2017-09-30T09:53:35.726Z,70.27
2017-09-30T09:56:04.746Z,69.38
2017-09-30T09:58:32.988Z,70.70
2017-09-30T10:01:02.011Z,69.60
2017-09-30T10:03:30.258Z,70.45
2017-09-30T10:05:59.289Z,69.00
2017-09-30T10:08:27.529Z,69.75
2017-09-30T10:10:56.559Z,67.98
2017-09-30T10:13:24.837Z,67.67
2017-09-30T10:15:53.118Z,67.84
2017-09-30T10:18:21.442Z,66.58
2017-09-30T10:20:49.690Z,66.69
2017-09-30T10:23:17.960Z,67.86
2017-09-30T10:25:46.197Z,66.04
2017-09-30T10:28:14.448Z,64.89
2017-09-30T10:30:43.465Z,65.68
2017-09-30T10:33:11.731Z,64.99
2017-09-30T10:35:40.752Z,62.01
2017-09-30T10:38:09.000Z,63.00
2017-09-30T10:40:37.249Z,63.73
2017-09-30T10:43:05.505Z,64.04
2017-09-30T10:45:33.757Z,63.55
2017-09-30T10:48:02.014Z,64.68
2017-09-30T10:50:38.773Z,63.48
2017-09-30T10:53:07.782Z,59.60
2017-09-30T10:55:36.029Z,59.02
2017-09-30T10:58:05.054Z,60.08
2017-09-30T11:00:33.303Z,58.37
2017-09-30T11:03:02.314Z,61.25
2017-09-30T11:05:30.562Z,57.59
2017-09-30T11:07:58.812Z,55.13
2017-09-30T11:10:27.061Z,55.54
2017-09-30T11:12:55.321Z,59.81
2017-09-30T11:15:23.561Z,60.74
2017-09-30T11:17:51.812Z,62.96
2017-09-30T11:20:20.070Z,59.38
2017-09-30T11:22:48.332Z,58.28
2017-09-30T11:25:16.571Z,58.34
2017-09-30T11:27:45.587Z,58.24
2017-09-30T11:30:13.830Z,56.14
2017-09-30T11:32:42.852Z,55.45
2017-09-30T11:35:11.103Z,57.25
2017-09-30T11:37:39.355Z,55.83
2017-09-30T11:40:07.605Z,54.79
2017-09-30T11:42:35.866Z,52.69
2017-09-30T11:45:04.113Z,54.95
2017-09-30T11:47:33.129Z,54.77
2017-09-30T11:50:01.382Z,54.17
2017-09-30T11:52:30.453Z,58.42
2017-09-30T11:54:58.702Z,58.27
2017-09-30T11:57:26.959Z,59.13
2017-09-30T11:59:55.205Z,57.45
2017-09-30T12:02:24.220Z,50.99
2017-09-30T12:04:52.470Z,51.37
2017-09-30T12:07:21.486Z,51.46
2017-09-30T12:09:49.732Z,50.81
2017-09-30T12:12:18.751Z,46.56
2017-09-30T12:14:46.997Z,45.27
2017-09-30T12:17:16.017Z,45.75
2017-09-30T12:19:44.274Z,47.53
2017-09-30T12:22:13.292Z,49.56
2017-09-30T12:24:41.558Z,49.20
2017-09-30T12:27:09.810Z,50.27
2017-09-30T12:29:38.826Z,48.46
2017-09-30T12:32:07.101Z,48.06
2017-09-30T12:34:35.350Z,46.07
2017-09-30T12:37:03.599Z,44.19
2017-09-30T12:39:31.853Z,47.05
2017-09-30T12:42:00.097Z,45.19
2017-09-30T12:44:29.121Z,46.67
2017-09-30T12:46:57.369Z,43.63
2017-09-30T12:49:25.630Z,43.49
2017-09-30T12:51:54.636Z,42.37
2017-09-30T12:54:22.906Z,42.41
2017-09-30T12:56:51.908Z,43.68
2017-09-30T12:59:20.165Z,41.54
2017-09-30T13:01:49.182Z,44.46
2017-09-30T13:04:17.433Z,44.86
2017-09-30T13:06:46.446Z,47.99
2017-09-30T13:09:14.716Z,49.03
2017-09-30T13:11:42.960Z,46.52
2017-09-30T13:14:11.205Z,49.30
2017-09-30T13:16:39.462Z,50.21
2017-09-30T13:19:07.718Z,51.35
2017-09-30T13:21:36.736Z,50.05
2017-09-30T13:24:04.980Z,49.06
2017-09-30T13:26:34.007Z,47.18
2017-09-30T13:29:02.253Z,45.90
2017-09-30T13:31:31.273Z,47.86
2017-09-30T13:33:59.521Z,50.65
2017-09-30T13:36:28.546Z,45.89
2017-09-30T13:38:56.798Z,47.29
2017-09-30T13:41:25.056Z,49.37
2017-09-30T13:43:54.065Z,50.83
2017-09-30T13:46:22.309Z,50.01
2017-09-30T13:48:50.565Z,45.59
2017-09-30T13:51:18.812Z,44.36
2017-09-30T13:53:47.066Z,48.75
2017-09-30T13:56:15.313Z,52.41
2017-09-30T13:58:43.569Z,49.45
2017-09-30T14:01:11.821Z,45.61
2017-09-30T14:03:40.502Z,47.44
2017-09-30T14:06:08.749Z,47.14
2017-09-30T14:08:37.005Z,45.06
2017-09-30T14:11:06.017Z,48.14
2017-09-30T14:13:34.269Z,51.73
2017-09-30T14:16:02.514Z,52.12
2017-09-30T14:18:30.760Z,52.68
2017-09-30T14:20:59.017Z,51.40
2017-09-30T14:23:28.039Z,50.23
2017-09-30T14:25:56.286Z,52.39
2017-09-30T14:28:24.542Z,52.41
2017-09-30T14:30:53.560Z,53.15
2017-09-30T14:33:21.813Z,50.07
2017-09-30T14:35:50.828Z,52.10
2017-09-30T14:38:19.088Z,53.73
2017-09-30T14:40:48.101Z,52.60
2017-09-30T14:43:16.357Z,51.80
2017-09-30T14:45:45.369Z,53.84
2017-09-30T14:48:13.626Z,54.62
2017-09-30T14:50:42.641Z,54.29
2017-09-30T14:53:10.896Z,54.40
2017-09-30T14:55:39.915Z,56.03
2017-09-30T14:58:08.172Z,56.12
2017-09-30T15:00:37.180Z,55.76
2017-09-30T15:03:05.437Z,56.39
2017-09-30T15:05:34.445Z,57.16
2017-09-30T15:08:02.714Z,56.62
2017-09-30T15:10:30.959Z,56.65
2017-09-30T15:12:59.213Z,57.16
2017-09-30T15:15:27.456Z,57.27
2017-09-30T15:17:55.714Z,58.04
2017-09-30T15:20:23.962Z,58.58
2017-09-30T15:22:52.215Z,58.19
2017-09-30T15:25:20.467Z,58.03
2017-09-30T15:27:48.748Z,58.47
2017-09-30T15:30:16.998Z,58.66
2017-09-30T15:32:45.249Z,58.53
2017-09-30T15:35:14.275Z,59.38
2017-09-30T15:37:42.527Z,59.24
2017-09-30T15:40:11.549Z,59.45
2017-09-30T15:42:39.798Z,64.19
2017-09-30T15:45:08.053Z,62.57
2017-09-30T15:47:36.303Z,63.84
2017-09-30T15:50:04.559Z,64.74
2017-09-30T15:52:32.806Z,64.72
2017-09-30T15:55:01.061Z,64.10
2017-09-30T15:57:30.075Z,65.39
2017-09-30T15:59:58.333Z,62.74
2017-09-30T16:02:27.349Z,62.74
2017-09-30T16:04:55.618Z,62.39
2017-09-30T16:07:23.864Z,61.79
2017-09-30T16:09:52.116Z,61.38
2017-09-30T16:12:20.373Z,61.50
2017-09-30T16:14:48.627Z,61.23
2017-09-30T16:17:16.877Z,61.35
2017-09-30T16:19:45.885Z,61.64
2017-09-30T16:22:14.150Z,60.82
2017-09-30T16:24:43.149Z,60.65
2017-09-30T16:27:12.166Z,60.87
2017-09-30T16:29:40.406Z,61.89
2017-09-30T16:32:09.430Z,64.28
2017-09-30T16:34:37.694Z,66.81
2017-09-30T16:37:05.945Z,70.17
2017-09-30T16:39:34.960Z,71.93
2017-09-30T16:42:03.228Z,73.07
2017-09-30T16:44:32.242Z,73.49
2017-09-30T16:47:00.494Z,74.28
2017-09-30T16:49:29.521Z,75.49
2017-09-30T16:51:57.774Z,77.27
2017-09-30T16:54:26.026Z,78.31
2017-09-30T16:56:55.038Z,78.09
2017-09-30T16:59:23.289Z,77.47
2017-09-30T17:01:51.545Z,76.83
2017-09-30T17:04:19.798Z,77.43
2017-09-30T17:06:48.052Z,77.35
2017-09-30T17:09:16.298Z,76.99
2017-09-30T17:11:45.318Z,76.78
2017-09-30T17:14:13.571Z,76.50
2017-09-30T17:16:42.576Z,76.56
2017-09-30T17:19:10.827Z,77.38
2017-09-30T17:21:39.066Z,76.60
2017-09-30T17:24:07.334Z,76.93
2017-09-30T17:26:35.573Z,77.40
2017-09-30T17:29:03.834Z,77.24
2017-09-30T17:31:32.844Z,77.69
2017-09-30T17:34:01.859Z,77.75
2017-09-30T17:36:30.106Z,77.85
2017-09-30T17:38:59.122Z,78.26
2017-09-30T17:41:27.367Z,78.62
2017-09-30T17:43:56.391Z,78.79
2017-09-30T17:46:24.630Z,78.61
2017-09-30T17:48:52.891Z,78.39
2017-09-30T17:51:21.141Z,79.04
2017-09-30T17:53:49.411Z,78.80
2017-09-30T17:56:17.654Z,78.68
2017-09-30T17:58:45.902Z,78.99
2017-09-30T18:01:14.921Z,78.60
2017-09-30T18:03:43.174Z,78.47
2017-09-30T18:06:12.207Z,78.14
2017-09-30T18:08:40.450Z,78.32
2017-09-30T18:11:09.477Z,78.79
2017-09-30T18:13:37.831Z,78.70
2017-09-30T18:16:06.869Z,78.59
2017-09-30T18:18:35.110Z,78.91
2017-09-30T18:21:03.357Z,78.52
2017-09-30T18:23:32.364Z,78.24
2017-09-30T18:26:01.385Z,77.70
2017-09-30T18:28:29.620Z,78.40
2017-09-30T18:30:58.643Z,78.60
2017-09-30T18:33:26.886Z,78.26
2017-09-30T18:35:55.905Z,78.38
2017-09-30T18:38:24.152Z,78.63
2017-09-30T18:40:53.186Z,79.09
2017-09-30T18:43:21.502Z,79.16
2017-09-30T18:45:49.745Z,79.11
2017-09-30T18:48:17.997Z,79.19
2017-09-30T18:50:46.254Z,79.03
2017-09-30T18:53:14.509Z,79.33
2017-09-30T18:55:42.753Z,79.27
2017-09-30T18:58:11.776Z,80.11
2017-09-30T19:00:40.026Z,80.27
2017-09-30T19:03:09.041Z,81.70
2017-09-30T19:05:37.298Z,81.25
2017-09-30T19:08:06.310Z,81.26
2017-09-30T19:10:34.562Z,82.02
2017-09-30T19:13:02.813Z,81.39
2017-09-30T19:15:32.028Z,81.68
2017-09-30T19:18:00.287Z,81.10
2017-09-30T19:20:28.531Z,81.27
2017-09-30T19:22:56.773Z,81.75
2017-09-30T19:25:25.852Z,81.76
2017-09-30T19:27:55.662Z,82.51
2017-09-30T19:30:23.910Z,82.94
2017-09-30T19:32:52.159Z,82.86
2017-09-30T19:35:20.409Z,83.08
2017-09-30T19:37:48.661Z,82.95
2017-09-30T19:40:16.911Z,82.68
2017-09-30T19:42:45.172Z,82.61
2017-09-30T19:45:13.426Z,83.45
2017-09-30T19:47:41.666Z,83.54
2017-09-30T19:50:10.694Z,83.94
2017-09-30T19:52:38.939Z,83.93
2017-09-30T19:55:07.973Z,84.04
2017-09-30T19:57:36.231Z,84.42
2017-09-30T20:00:04.478Z,84.76
2017-09-30T20:02:33.497Z,85.00
2017-09-30T20:05:01.749Z,84.88
2017-09-30T20:07:30.773Z,84.67
2017-09-30T20:09:59.022Z,84.78
2017-09-30T20:12:28.051Z,84.96
2017-09-30T20:14:56.297Z,85.04
2017-09-30T20:17:25.322Z,85.17
2017-09-30T20:19:53.570Z,84.78
2017-09-30T20:22:22.599Z,85.49
2017-09-30T20:24:50.850Z,85.84
2017-09-30T20:27:19.121Z,85.95
2017-09-30T20:29:47.368Z,86.50
2017-09-30T20:32:16.390Z,86.89
2017-09-30T20:34:44.650Z,86.49
2017-09-30T20:37:13.669Z,86.27
2017-09-30T20:39:41.934Z,86.46
2017-09-30T20:42:10.189Z,86.53
2017-09-30T20:44:39.234Z,86.64
2017-09-30T20:47:07.542Z,86.67
2017-09-30T20:49:35.798Z,86.51
2017-09-30T20:52:04.048Z,86.60
2017-09-30T20:54:32.297Z,86.80
2017-09-30T20:57:01.305Z,86.37
2017-09-30T20:59:29.569Z,86.16
2017-09-30T21:01:58.586Z,86.34
2017-09-30T21:04:26.841Z,86.55
2017-09-30T21:06:55.094Z,86.37
2017-09-30T21:09:24.109Z,86.70
2017-09-30T21:11:52.365Z,86.82
2017-09-30T21:14:21.378Z,86.41
2017-09-30T21:16:49.653Z,86.81
2017-09-30T21:19:18.661Z,86.81
2017-09-30T21:21:46.925Z,86.92
2017-09-30T21:24:15.242Z,87.03
2017-09-30T21:26:43.534Z,87.02
2017-09-30T21:29:11.787Z,87.21
2017-09-30T21:31:40.820Z,87.19
2017-09-30T21:34:09.074Z,87.17
2017-09-30T21:36:38.138Z,87.27
2017-09-30T21:39:06.406Z,86.79
2017-09-30T21:41:34.710Z,86.98
2017-09-30T21:44:03.852Z,87.06
2017-09-30T21:46:32.129Z,87.20
2017-09-30T21:49:00.390Z,87.01
2017-09-30T21:51:28.637Z,87.04
2017-09-30T21:53:57.669Z,87.28
2017-09-30T21:56:26.034Z,87.02
2017-09-30T21:58:54.298Z,87.00
2017-09-30T22:01:22.545Z,87.43
2017-09-30T22:03:50.814Z,87.30
2017-09-30T22:06:19.070Z,87.36
2017-09-30T22:08:47.327Z,87.21
2017-09-30T22:11:15.594Z,87.32
2017-09-30T22:13:43.850Z,87.45
2017-09-30T22:16:12.109Z,87.61
2017-09-30T22:18:41.139Z,87.26
2017-09-30T22:21:09.393Z,87.58
2017-09-30T22:23:37.645Z,87.51
2017-09-30T22:26:05.910Z,87.35
2017-09-30T22:28:35.766Z,86.71
2017-09-30T22:31:04.021Z,86.66
2017-09-30T22:33:33.032Z,87.04
2017-09-30T22:36:01.295Z,86.64
2017-09-30T22:38:30.306Z,86.73
2017-09-30T22:40:58.568Z,86.78
2017-09-30T22:43:27.586Z,86.64
2017-09-30T22:45:55.845Z,86.74
2017-09-30T22:48:24.093Z,86.30
2017-09-30T22:50:53.117Z,86.98
2017-09-30T22:53:21.364Z,86.76
2017-09-30T22:55:49.621Z,87.16
2017-09-30T22:58:17.874Z,86.61
2017-09-30T23:00:46.133Z,86.65
2017-09-30T23:03:14.399Z,86.73
2017-09-30T23:05:42.654Z,86.65
2017-09-30T23:08:11.682Z,86.63
2017-09-30T23:10:39.934Z,86.83
2017-09-30T23:13:08.177Z,86.50
2017-09-30T23:15:36.438Z,86.72
2017-09-30T23:18:04.689Z,86.57
2017-09-30T23:20:32.945Z,86.63
2017-09-30T23:23:01.196Z,86.78
2017-09-30T23:25:30.229Z,86.89
2017-09-30T23:27:58.478Z,87.06
2017-09-30T23:30:26.737Z,87.00
2017-09-30T23:32:55.756Z,86.72
2017-09-30T23:35:24.021Z,86.47
2017-09-30T23:37:52.270Z,86.88
2017-09-30T23:40:21.294Z,86.51
2017-09-30T23:42:49.539Z,86.48
2017-09-30T23:45:17.793Z,86.85
2017-09-30T23:47:46.041Z,86.58
2017-09-30T23:50:14.298Z,86.06
2017-09-30T23:52:42.537Z,86.09
2017-09-30T23:55:11.562Z,86.48
2017-09-30T23:57:39.803Z,86.06
